createdAt,value
2023-06-30T00:01:38.041Z,65.67
2023-06-30T00:04:05.705Z,65.82
2023-06-30T00:06:34.244Z,65.93
2023-06-30T00:09:01.714Z,65.99
2023-06-30T00:11:29.189Z,65.89
2023-06-30T00:13:56.717Z,66.05
2023-06-30T00:16:24.304Z,66.10
2023-06-30T00:18:51.820Z,66.12
2023-06-30T00:21:20.004Z,66.14
2023-06-30T00:23:47.656Z,66.23
2023-06-30T00:26:15.241Z,66.24
2023-06-30T00:28:42.733Z,66.30
2023-06-30T00:31:10.286Z,66.23
2023-06-30T00:33:37.975Z,66.41
2023-06-30T00:36:05.603Z,66.33
2023-06-30T00:38:33.280Z,66.29
2023-06-30T00:41:00.952Z,66.41
2023-06-30T00:43:28.453Z,66.75
2023-06-30T00:45:57.641Z,66.93
2023-06-30T00:48:25.361Z,67.11
2023-06-30T00:50:52.884Z,67.07
2023-06-30T00:53:20.631Z,66.98
2023-06-30T00:55:48.452Z,67.03
2023-06-30T00:58:16.204Z,67.00
2023-06-30T01:00:44.013Z,66.81
2023-06-30T01:03:34.468Z,66.88
2023-06-30T01:06:16.529Z,66.99
2023-06-30T01:09:01.659Z,66.96
2023-06-30T01:11:33.754Z,67.05
2023-06-30T01:14:04.214Z,66.98
2023-06-30T01:16:34.482Z,67.00
2023-06-30T01:19:07.238Z,67.21
2023-06-30T01:21:36.230Z,67.18
2023-06-30T01:24:08.083Z,67.19
2023-06-30T01:26:35.661Z,67.29
2023-06-30T01:29:04.527Z,67.31
2023-06-30T01:31:33.723Z,67.27
2023-06-30T01:34:02.345Z,67.16
2023-06-30T01:36:30.153Z,67.17
2023-06-30T01:39:00.398Z,67.11
2023-06-30T01:41:28.056Z,67.21
2023-06-30T01:43:56.296Z,67.18
2023-06-30T01:46:23.922Z,67.27
2023-06-30T01:48:51.558Z,67.38
2023-06-30T01:51:19.489Z,67.57
2023-06-30T01:53:47.080Z,67.86
2023-06-30T01:56:15.168Z,67.85
2023-06-30T01:58:42.803Z,67.88
2023-06-30T02:01:10.334Z,67.92
2023-06-30T02:03:38.108Z,67.85
2023-06-30T02:06:05.867Z,67.98
2023-06-30T02:08:33.406Z,68.03
2023-06-30T02:11:00.874Z,68.01
2023-06-30T02:13:28.464Z,68.09
2023-06-30T02:15:55.988Z,68.34
2023-06-30T02:18:26.000Z,68.43
2023-06-30T02:20:54.227Z,68.51
2023-06-30T02:23:22.020Z,68.48
2023-06-30T02:25:49.576Z,68.69
2023-06-30T02:28:17.153Z,68.91
2023-06-30T02:30:45.705Z,68.98
2023-06-30T02:33:13.280Z,69.13
2023-06-30T02:35:40.838Z,69.16
2023-06-30T02:38:08.768Z,69.31
2023-06-30T02:40:37.403Z,69.25
2023-06-30T02:43:04.953Z,69.30
2023-06-30T02:45:32.578Z,69.34
2023-06-30T02:48:00.325Z,69.39
2023-06-30T02:50:30.378Z,69.45
2023-06-30T02:52:59.786Z,69.61
2023-06-30T02:55:28.806Z,69.58
2023-06-30T02:57:57.893Z,69.69
2023-06-30T03:00:26.078Z,69.72
2023-06-30T03:02:55.031Z,69.71
2023-06-30T03:05:22.862Z,69.93
2023-06-30T03:07:50.474Z,69.85
2023-06-30T03:10:19.460Z,69.73
2023-06-30T03:12:47.036Z,69.84
2023-06-30T03:15:14.793Z,69.81
2023-06-30T03:17:42.706Z,69.77
2023-06-30T03:20:11.705Z,69.81
2023-06-30T03:22:40.755Z,69.81
2023-06-30T03:25:09.685Z,70.03
2023-06-30T03:27:37.641Z,70.10
2023-06-30T03:30:06.783Z,70.29
2023-06-30T03:32:36.930Z,70.43
2023-06-30T03:35:05.058Z,70.37
2023-06-30T03:37:33.988Z,70.54
2023-06-30T03:40:07.835Z,70.43
2023-06-30T03:42:35.646Z,70.36
2023-06-30T03:45:03.392Z,70.44
2023-06-30T03:47:33.919Z,70.39
2023-06-30T03:50:01.666Z,70.42
2023-06-30T03:52:29.375Z,70.56
2023-06-30T03:54:57.684Z,70.76
2023-06-30T03:57:25.182Z,70.99
2023-06-30T03:59:52.708Z,71.10
2023-06-30T04:02:20.312Z,71.21
2023-06-30T04:04:48.205Z,71.47
2023-06-30T04:07:15.893Z,71.67
2023-06-30T04:09:43.568Z,71.86
2023-06-30T04:12:11.273Z,71.99
2023-06-30T04:14:38.829Z,71.99
2023-06-30T04:17:06.656Z,72.13
2023-06-30T04:19:34.169Z,72.19
2023-06-30T04:22:04.902Z,72.36
2023-06-30T04:24:33.234Z,72.49
2023-06-30T04:27:00.738Z,72.31
2023-06-30T04:29:28.763Z,72.29
2023-06-30T04:31:56.336Z,72.36
2023-06-30T04:34:23.992Z,72.53
2023-06-30T04:36:51.507Z,72.54
2023-06-30T04:39:20.542Z,72.37
2023-06-30T04:41:48.092Z,72.53
2023-06-30T04:44:15.898Z,72.63
2023-06-30T04:46:43.424Z,72.71
2023-06-30T04:49:11.089Z,72.68
2023-06-30T04:51:38.672Z,72.83
2023-06-30T04:54:06.212Z,72.98
2023-06-30T04:56:33.813Z,73.09
2023-06-30T04:59:01.366Z,73.26
2023-06-30T05:01:29.858Z,73.51
2023-06-30T05:03:57.587Z,73.62
2023-06-30T05:06:25.605Z,73.66
2023-06-30T05:08:53.123Z,73.74
2023-06-30T05:11:20.615Z,73.93
2023-06-30T05:13:48.345Z,74.14
2023-06-30T05:16:15.977Z,74.18
2023-06-30T05:18:43.630Z,74.25
2023-06-30T05:21:11.187Z,74.24
2023-06-30T05:23:38.736Z,73.99
2023-06-30T05:26:07.187Z,73.78
2023-06-30T05:28:35.938Z,73.80
2023-06-30T05:31:04.609Z,73.72
2023-06-30T05:33:32.304Z,73.84
2023-06-30T05:35:59.902Z,73.71
2023-06-30T05:38:27.422Z,73.90
2023-06-30T05:40:54.960Z,73.64
2023-06-30T05:43:22.486Z,73.55
2023-06-30T05:45:50.774Z,73.54
2023-06-30T05:48:18.319Z,73.49
2023-06-30T05:50:46.583Z,73.16
2023-06-30T05:53:14.211Z,73.11
2023-06-30T05:55:41.911Z,73.20
2023-06-30T05:58:10.316Z,73.09
2023-06-30T06:00:37.843Z,72.73
2023-06-30T06:03:05.567Z,72.22
2023-06-30T06:05:33.558Z,72.15
2023-06-30T06:08:01.237Z,72.02
2023-06-30T06:10:29.825Z,71.90
2023-06-30T06:12:57.515Z,71.26
2023-06-30T06:15:26.498Z,70.89
2023-06-30T06:17:55.461Z,70.69
2023-06-30T06:20:23.171Z,70.49
2023-06-30T06:22:50.721Z,70.42
2023-06-30T06:25:18.224Z,69.67
2023-06-30T06:27:45.873Z,69.70
2023-06-30T06:30:14.061Z,69.50
2023-06-30T06:32:41.716Z,69.10
2023-06-30T06:35:09.428Z,68.77
2023-06-30T06:37:36.973Z,68.52
2023-06-30T06:40:05.181Z,68.05
2023-06-30T06:42:32.753Z,68.06
2023-06-30T06:45:00.264Z,67.89
2023-06-30T06:47:59.864Z,67.84
2023-06-30T06:50:27.577Z,67.56
2023-06-30T06:52:55.311Z,67.48
2023-06-30T06:55:23.054Z,67.30
2023-06-30T06:57:50.663Z,67.13
2023-06-30T07:00:18.479Z,67.11
2023-06-30T07:02:46.269Z,66.92
2023-06-30T07:05:13.991Z,66.92
2023-06-30T07:07:41.896Z,66.41
2023-06-30T07:10:10.055Z,66.08
2023-06-30T07:12:37.562Z,65.78
2023-06-30T07:15:06.206Z,65.60
2023-06-30T07:17:33.956Z,65.64
2023-06-30T07:20:01.640Z,65.65
2023-06-30T07:22:29.131Z,65.63
2023-06-30T07:24:56.635Z,65.17
2023-06-30T07:27:24.137Z,65.08
2023-06-30T07:29:51.818Z,64.66
2023-06-30T07:32:19.436Z,62.89
2023-06-30T07:34:46.971Z,62.58
2023-06-30T07:37:14.480Z,61.18
2023-06-30T07:39:42.060Z,61.64
2023-06-30T07:42:09.609Z,61.43
2023-06-30T07:44:37.262Z,60.71
2023-06-30T07:47:05.321Z,59.70
2023-06-30T07:49:32.992Z,59.12
2023-06-30T07:52:00.626Z,59.33
2023-06-30T07:54:28.325Z,58.92
2023-06-30T07:56:56.096Z,58.70
2023-06-30T07:59:23.755Z,58.36
2023-06-30T08:01:52.129Z,58.65
2023-06-30T08:04:20.115Z,57.22
2023-06-30T08:06:48.558Z,56.87
2023-06-30T08:09:16.042Z,56.51
2023-06-30T08:11:43.551Z,57.01
2023-06-30T08:14:11.054Z,55.84
2023-06-30T08:16:38.850Z,55.59
2023-06-30T08:19:07.034Z,55.66
2023-06-30T08:21:49.364Z,54.48
2023-06-30T08:24:16.896Z,54.58
2023-06-30T08:26:44.407Z,54.71
2023-06-30T08:29:11.909Z,53.52
2023-06-30T08:31:39.480Z,52.00
2023-06-30T08:34:09.413Z,53.25
2023-06-30T08:36:37.288Z,53.04
2023-06-30T08:39:04.817Z,52.91
2023-06-30T08:41:34.290Z,52.82
2023-06-30T08:44:02.018Z,52.62
2023-06-30T08:46:30.210Z,52.58
2023-06-30T08:48:58.171Z,52.63
2023-06-30T08:51:25.849Z,51.84
2023-06-30T08:53:54.636Z,52.22
2023-06-30T08:56:22.693Z,52.19
2023-06-30T08:58:50.231Z,51.32
2023-06-30T09:01:18.397Z,50.91
2023-06-30T09:03:46.931Z,50.82
2023-06-30T09:06:15.352Z,49.95
2023-06-30T09:08:51.997Z,49.21
2023-06-30T09:11:23.527Z,49.17
2023-06-30T09:13:54.641Z,49.35
2023-06-30T09:16:22.413Z,49.15
2023-06-30T09:18:50.429Z,48.59
2023-06-30T09:21:18.042Z,48.39
2023-06-30T09:23:45.543Z,48.60
2023-06-30T09:26:17.294Z,48.60
2023-06-30T09:28:46.345Z,47.84
2023-06-30T09:31:15.491Z,47.73
2023-06-30T09:33:44.440Z,47.82
2023-06-30T09:36:17.556Z,47.95
2023-06-30T09:38:45.243Z,46.84
2023-06-30T09:41:21.029Z,46.49
2023-06-30T09:43:57.334Z,46.33
2023-06-30T09:46:25.117Z,46.58
2023-06-30T09:48:56.619Z,46.30
2023-06-30T09:51:24.233Z,45.83
2023-06-30T09:53:55.413Z,45.85
2023-06-30T09:56:23.908Z,45.87
2023-06-30T09:58:57.902Z,45.54
2023-06-30T10:01:25.936Z,45.67
2023-06-30T10:03:55.685Z,45.85
2023-06-30T10:06:24.482Z,44.87
2023-06-30T10:08:52.558Z,45.02
2023-06-30T10:11:23.376Z,45.23
2023-06-30T10:13:55.608Z,44.42
2023-06-30T10:16:23.794Z,44.35
2023-06-30T10:18:52.664Z,44.23
2023-06-30T10:21:20.363Z,44.05
2023-06-30T10:23:49.156Z,44.04
2023-06-30T10:26:20.445Z,43.88
2023-06-30T10:28:48.831Z,43.54
2023-06-30T10:31:17.091Z,43.19
2023-06-30T10:33:44.820Z,43.21
2023-06-30T10:36:14.570Z,43.25
2023-06-30T10:38:44.363Z,42.98
2023-06-30T10:41:18.378Z,42.52
2023-06-30T10:44:04.662Z,42.95
2023-06-30T10:46:48.774Z,42.78
2023-06-30T10:49:36.161Z,42.22
2023-06-30T10:52:08.582Z,42.60
2023-06-30T10:54:46.948Z,42.37
2023-06-30T10:57:21.695Z,42.40
2023-06-30T11:00:17.194Z,42.37
2023-06-30T11:02:57.078Z,42.34
2023-06-30T11:05:32.434Z,42.18
2023-06-30T11:08:02.867Z,42.10
2023-06-30T11:10:47.782Z,41.79
2023-06-30T11:13:15.598Z,41.64
2023-06-30T11:15:43.221Z,41.23
2023-06-30T11:18:13.241Z,41.27
2023-06-30T11:20:57.879Z,40.87
2023-06-30T11:23:47.008Z,40.62
2023-06-30T11:26:19.811Z,40.61
2023-06-30T11:28:49.612Z,40.54
2023-06-30T11:31:18.180Z,40.28
2023-06-30T11:33:47.038Z,40.44
2023-06-30T11:36:16.229Z,40.36
2023-06-30T11:38:48.080Z,40.09
2023-06-30T11:41:20.321Z,39.97
2023-06-30T11:43:52.052Z,39.59
2023-06-30T11:46:20.355Z,39.34
2023-06-30T11:48:50.735Z,38.80
2023-06-30T11:51:18.952Z,39.26
2023-06-30T11:53:50.222Z,38.69
2023-06-30T11:56:22.016Z,38.77
2023-06-30T11:58:50.622Z,39.02
2023-06-30T12:01:18.215Z,38.81
2023-06-30T12:03:45.745Z,38.10
2023-06-30T12:06:19.545Z,38.46
2023-06-30T12:08:47.157Z,38.45
2023-06-30T12:11:16.963Z,38.50
2023-06-30T12:13:45.286Z,38.31
2023-06-30T12:16:13.677Z,38.18
2023-06-30T12:18:45.700Z,37.85
2023-06-30T12:21:14.447Z,37.79
2023-06-30T12:23:46.381Z,37.18
2023-06-30T12:26:14.722Z,36.98
2023-06-30T12:28:43.158Z,37.35
2023-06-30T12:31:11.208Z,37.33
2023-06-30T12:33:38.727Z,37.30
2023-06-30T12:36:09.628Z,37.26
2023-06-30T12:38:37.166Z,37.27
2023-06-30T12:41:04.823Z,37.08
2023-06-30T12:43:34.400Z,36.77
2023-06-30T12:46:02.692Z,36.69
2023-06-30T12:48:30.461Z,36.72
2023-06-30T12:50:59.012Z,35.87
2023-06-30T12:53:26.688Z,35.67
2023-06-30T12:55:54.464Z,35.35
2023-06-30T12:58:22.379Z,35.33
2023-06-30T13:00:54.423Z,35.08
2023-06-30T13:03:22.070Z,35.14
2023-06-30T13:05:52.019Z,34.65
2023-06-30T13:08:19.526Z,34.37
2023-06-30T13:10:47.184Z,34.41
2023-06-30T13:13:14.926Z,34.38
2023-06-30T13:15:42.804Z,34.44
2023-06-30T13:18:10.724Z,34.49
2023-06-30T13:20:38.550Z,34.73
2023-06-30T13:23:12.615Z,34.59
2023-06-30T13:25:48.332Z,33.90
2023-06-30T13:28:16.232Z,33.85
2023-06-30T13:30:44.345Z,33.66
2023-06-30T13:33:12.739Z,33.29
2023-06-30T13:35:40.256Z,33.13
2023-06-30T13:38:07.836Z,33.58
2023-06-30T13:40:35.352Z,33.69
2023-06-30T13:43:04.458Z,33.65
2023-06-30T13:45:32.799Z,33.95
2023-06-30T13:48:00.458Z,34.03
2023-06-30T13:50:29.016Z,33.84
2023-06-30T13:52:56.729Z,34.07
2023-06-30T13:55:25.556Z,33.95
2023-06-30T13:57:53.149Z,33.97
2023-06-30T14:00:21.790Z,33.79
2023-06-30T14:02:49.426Z,33.68
2023-06-30T14:05:17.307Z,33.88
2023-06-30T14:07:45.006Z,34.06
2023-06-30T14:10:12.613Z,33.88
2023-06-30T14:12:41.324Z,33.92
2023-06-30T14:15:09.767Z,33.96
2023-06-30T14:17:37.407Z,34.24
2023-06-30T14:20:06.609Z,34.38
2023-06-30T14:22:34.178Z,34.41
2023-06-30T14:25:01.708Z,34.58
2023-06-30T14:27:29.284Z,34.93
2023-06-30T14:29:56.830Z,35.15
2023-06-30T14:32:26.676Z,35.15
2023-06-30T14:34:54.389Z,35.15
2023-06-30T14:37:22.260Z,35.59
2023-06-30T14:39:49.770Z,36.00
2023-06-30T14:42:30.919Z,36.33
2023-06-30T14:45:00.351Z,36.68
2023-06-30T14:47:28.398Z,36.91
2023-06-30T14:49:58.124Z,37.31
2023-06-30T14:52:26.314Z,37.21
2023-06-30T14:54:53.908Z,37.73
2023-06-30T14:57:21.434Z,37.71
2023-06-30T14:59:49.059Z,37.73
2023-06-30T15:02:18.598Z,38.01
2023-06-30T15:04:46.546Z,38.26
2023-06-30T15:07:14.202Z,38.32
2023-06-30T15:09:42.676Z,38.62
2023-06-30T15:12:10.650Z,38.66
2023-06-30T15:14:38.212Z,39.33
2023-06-30T15:17:05.835Z,39.48
2023-06-30T15:19:34.214Z,39.83
2023-06-30T15:22:01.832Z,40.15
2023-06-30T15:24:29.426Z,40.84
2023-06-30T15:26:57.145Z,40.94
2023-06-30T15:29:24.674Z,41.54
2023-06-30T15:31:54.934Z,41.65
2023-06-30T15:34:23.105Z,41.95
2023-06-30T15:36:50.602Z,42.34
2023-06-30T15:39:18.136Z,43.25
2023-06-30T15:41:45.670Z,42.61
2023-06-30T15:44:13.198Z,43.37
2023-06-30T15:46:40.897Z,43.19
2023-06-30T15:49:08.594Z,43.00
2023-06-30T15:51:36.148Z,43.23
2023-06-30T15:54:03.657Z,43.50
2023-06-30T15:56:31.256Z,43.99
2023-06-30T15:58:59.223Z,44.54
2023-06-30T16:01:26.730Z,44.26
2023-06-30T16:03:54.275Z,44.64
2023-06-30T16:06:21.900Z,44.53
2023-06-30T16:08:49.396Z,45.25
2023-06-30T16:11:16.932Z,45.20
2023-06-30T16:13:44.565Z,45.59
2023-06-30T16:16:12.073Z,45.80
2023-06-30T16:18:39.676Z,46.04
2023-06-30T16:21:07.202Z,46.10
2023-06-30T16:23:34.925Z,46.17
2023-06-30T16:26:02.422Z,46.48
2023-06-30T16:28:29.974Z,46.33
2023-06-30T16:30:57.495Z,46.95
2023-06-30T16:33:25.154Z,46.81
2023-06-30T16:35:52.965Z,46.72
2023-06-30T16:38:20.506Z,46.81
2023-06-30T16:40:48.043Z,46.92
2023-06-30T16:43:15.554Z,47.15
2023-06-30T16:45:43.202Z,47.48
2023-06-30T16:48:10.977Z,47.87
2023-06-30T16:50:38.617Z,47.92
2023-06-30T16:53:06.218Z,48.21
2023-06-30T16:55:33.774Z,48.42
2023-06-30T16:58:02.188Z,48.58
2023-06-30T17:00:29.746Z,48.82
2023-06-30T17:02:57.341Z,48.81
2023-06-30T17:05:25.574Z,49.23
2023-06-30T17:07:53.289Z,49.87
2023-06-30T17:10:20.825Z,50.23
2023-06-30T17:12:48.375Z,50.58
2023-06-30T17:15:15.902Z,50.81
2023-06-30T17:17:43.411Z,50.99
2023-06-30T17:20:11.572Z,50.76
2023-06-30T17:22:39.062Z,51.02
2023-06-30T17:25:07.560Z,51.56
2023-06-30T17:27:35.250Z,51.92
2023-06-30T17:30:03.975Z,52.39
2023-06-30T17:32:31.539Z,52.70
2023-06-30T17:34:59.194Z,53.49
2023-06-30T17:37:26.982Z,54.57
2023-06-30T17:39:54.621Z,56.16
2023-06-30T17:42:22.294Z,57.14
2023-06-30T17:44:49.800Z,55.99
2023-06-30T17:47:17.282Z,56.43
2023-06-30T17:49:46.531Z,56.60
2023-06-30T17:52:15.793Z,57.34
2023-06-30T17:54:43.545Z,57.06
2023-06-30T17:57:11.131Z,57.40
2023-06-30T17:59:38.640Z,57.53
2023-06-30T18:02:07.002Z,57.68
2023-06-30T18:04:35.060Z,57.77
2023-06-30T18:07:09.331Z,58.36
2023-06-30T18:09:41.983Z,58.15
2023-06-30T18:12:11.107Z,58.38
2023-06-30T18:14:41.795Z,58.96
2023-06-30T18:17:09.635Z,59.20
2023-06-30T18:19:41.176Z,60.13
2023-06-30T18:22:08.948Z,61.82
2023-06-30T18:24:36.536Z,61.65
2023-06-30T18:27:04.526Z,61.90
2023-06-30T18:29:32.508Z,63.03
2023-06-30T18:32:01.065Z,63.36
2023-06-30T18:34:29.239Z,64.69
2023-06-30T18:36:56.897Z,64.61
2023-06-30T18:39:24.440Z,64.98
2023-06-30T18:41:51.921Z,64.20
2023-06-30T18:44:19.462Z,64.33
2023-06-30T18:46:48.154Z,64.44
2023-06-30T18:49:15.676Z,64.18
2023-06-30T18:51:43.919Z,64.56
2023-06-30T18:54:11.678Z,65.23
2023-06-30T18:56:39.245Z,65.43
2023-06-30T18:59:06.899Z,65.58
2023-06-30T19:01:35.074Z,66.06
2023-06-30T19:04:03.296Z,67.14
2023-06-30T19:06:31.166Z,68.47
2023-06-30T19:08:58.668Z,67.65
2023-06-30T19:11:26.213Z,67.50
2023-06-30T19:13:53.709Z,68.23
2023-06-30T19:16:21.518Z,68.93
2023-06-30T19:18:49.098Z,69.06
2023-06-30T19:21:17.501Z,69.63
2023-06-30T19:23:45.173Z,68.83
2023-06-30T19:26:13.263Z,68.91
2023-06-30T19:28:41.684Z,68.78
2023-06-30T19:31:09.506Z,69.02
2023-06-30T19:33:37.838Z,69.42
2023-06-30T19:36:06.708Z,70.08
2023-06-30T19:38:34.536Z,70.45
2023-06-30T19:41:02.096Z,70.62
2023-06-30T19:43:29.708Z,70.38
2023-06-30T19:45:57.490Z,70.21
2023-06-30T19:48:25.048Z,70.20
2023-06-30T19:50:52.726Z,70.27
2023-06-30T19:53:20.640Z,70.59
2023-06-30T19:55:49.201Z,70.61
2023-06-30T19:58:16.954Z,70.84
2023-06-30T20:00:44.494Z,70.97
2023-06-30T20:03:12.096Z,71.14
2023-06-30T20:05:39.796Z,71.33
2023-06-30T20:08:07.473Z,71.58
2023-06-30T20:10:34.981Z,71.80
2023-06-30T20:13:02.755Z,72.16
2023-06-30T20:15:31.944Z,72.23
2023-06-30T20:17:59.630Z,73.27
2023-06-30T20:20:27.442Z,74.84
2023-06-30T20:22:55.185Z,74.54
2023-06-30T20:25:24.297Z,74.50
2023-06-30T20:27:51.911Z,74.24
2023-06-30T20:30:19.635Z,74.53
2023-06-30T20:32:47.328Z,74.82
2023-06-30T20:35:18.108Z,74.69
2023-06-30T20:37:46.836Z,74.73
2023-06-30T20:40:14.372Z,74.75
2023-06-30T20:42:41.958Z,74.80
2023-06-30T20:45:10.383Z,74.78
2023-06-30T20:47:38.443Z,74.78
2023-06-30T20:50:08.932Z,74.78
2023-06-30T20:52:37.199Z,74.95
2023-06-30T20:55:05.217Z,75.17
2023-06-30T20:57:33.535Z,75.12
2023-06-30T21:00:01.066Z,75.17
2023-06-30T21:02:29.196Z,75.48
2023-06-30T21:04:58.863Z,76.77
2023-06-30T21:07:26.950Z,79.09
2023-06-30T21:09:54.462Z,79.48
2023-06-30T21:12:22.013Z,77.79
2023-06-30T21:14:49.572Z,78.23
2023-06-30T21:17:17.145Z,78.31
2023-06-30T21:19:44.632Z,79.09
2023-06-30T21:22:12.133Z,80.25
2023-06-30T21:24:39.631Z,79.72
2023-06-30T21:27:07.247Z,79.89
2023-06-30T21:29:34.750Z,79.68
2023-06-30T21:32:02.489Z,79.52
2023-06-30T21:34:30.179Z,80.48
2023-06-30T21:36:57.726Z,79.51
2023-06-30T21:39:25.458Z,81.60
2023-06-30T21:41:52.999Z,80.73
2023-06-30T21:44:20.553Z,81.91
2023-06-30T21:46:48.074Z,81.95
2023-06-30T21:49:15.611Z,82.94
2023-06-30T21:51:43.245Z,82.84
2023-06-30T21:54:10.859Z,82.18
2023-06-30T21:56:38.366Z,84.27
2023-06-30T21:59:06.030Z,84.65
2023-06-30T22:01:41.225Z,86.31
2023-06-30T22:04:10.158Z,87.66
2023-06-30T22:06:38.040Z,86.15
2023-06-30T22:09:15.477Z,85.58
2023-06-30T22:11:45.295Z,86.00
2023-06-30T22:14:13.319Z,86.62
2023-06-30T22:16:41.208Z,84.53
2023-06-30T22:19:08.811Z,84.27
2023-06-30T22:21:36.529Z,84.20
2023-06-30T22:24:04.438Z,83.92
2023-06-30T22:26:31.973Z,84.10
2023-06-30T22:28:59.741Z,84.55
2023-06-30T22:31:27.505Z,83.96
2023-06-30T22:33:55.288Z,83.83
2023-06-30T22:36:23.093Z,83.88
2023-06-30T22:38:51.069Z,83.53
2023-06-30T22:41:18.707Z,83.24
2023-06-30T22:43:46.308Z,83.07
2023-06-30T22:46:13.831Z,83.04
2023-06-30T22:48:41.480Z,83.17
2023-06-30T22:51:09.076Z,83.04
2023-06-30T22:53:36.639Z,83.54
2023-06-30T22:56:07.283Z,83.40
2023-06-30T22:58:34.891Z,83.43
2023-06-30T23:01:02.497Z,83.45
2023-06-30T23:03:30.150Z,83.08
2023-06-30T23:05:57.802Z,82.67
2023-06-30T23:08:25.335Z,82.94
2023-06-30T23:10:53.968Z,83.20
2023-06-30T23:13:21.500Z,83.01
2023-06-30T23:15:49.027Z,82.97
2023-06-30T23:18:20.343Z,83.07
2023-06-30T23:20:48.485Z,82.93
2023-06-30T23:23:16.278Z,82.86
2023-06-30T23:25:43.928Z,82.81
2023-06-30T23:28:11.481Z,82.91
2023-06-30T23:30:40.549Z,82.99
2023-06-30T23:33:08.225Z,83.17
2023-06-30T23:35:35.904Z,83.10
2023-06-30T23:38:03.568Z,83.23
2023-06-30T23:40:31.060Z,83.39
2023-06-30T23:42:59.523Z,83.61
2023-06-30T23:45:27.076Z,83.80
2023-06-30T23:47:56.033Z,83.83
2023-06-30T23:50:24.181Z,84.13
2023-06-30T23:52:51.742Z,84.24
2023-06-30T23:55:19.281Z,84.59
2023-06-30T23:57:46.869Z,84.58
